KBUF

Buffalo Niagara International Airport

Buffalo, New York, USA
METAR KBUF 212154Z 04012KT 10SM CLR 23/08 A2989 RMK AO2 SLP121 T02280078
Observed Flight Rules
Jun-21 @ 21:54 UTC (12 minutes ago) Visual Flight Rules
Wind Visibility Clouds
40° at 12 knots 10 miles
  • Clear skies
Temperatures Readings
Current 23°C / 73°F
Dewpoint 8°C / 46°F
Humidity 38%
Altimeter 29.89" Hg
Pressure 1012.1 hPa
Elevation 211
METAR KBUF 212154Z 04012KT 10SM CLR 23/08 A2989 RMK AO2 SLP121 T02280078
Observed Flight Rules
Jun-21 @ 21:54 UTC
(12 minutes ago)
VFR
Wind Visibility
40° at 12 knots 10 miles
Clouds
  • Clear skies
Temperature Dewpoint
23°C / 73°F 8°C / 46°F
Humidity Altimeter Pressure
38% 29.89" Hg 1012.1 hPa